Time;durP1;ratioP1;P1;durP2;ratioP2;P2;SDS_P1;SDS_P2;PMS_P1;PMS_P2;Temp;Humidity;BMP_temperature;BMP_pressure;BME280_temperature;BME280_humidity;BME280_pressure;Samples;Min_cycle;Max_cycle;Signal;HPM_P1;HPM_P2
2022/01/22 00:01:12;;;;;;;29.02;11.43;;;7.10;67.70;;;;;;6233264;22;20332;-59
2022/01/22 00:03:39;;;;;;;29.08;11.63;;;7.10;67.60;;;;;;6233332;23;20012;-58
2022/01/22 00:06:05;;;;;;;25.75;12.05;;;7.10;67.70;;;;;;6236368;23;20010;-59
2022/01/22 00:08:32;;;;;;;25.40;12.60;;;7.10;67.70;;;;;;6232547;23;20007;-58
2022/01/22 00:10:58;;;;;;;36.10;13.05;;;7.10;67.90;;;;;;6230870;23;20008;-57
2022/01/22 00:16:09;;;;;;;32.47;10.90;;;7.10;68.10;;;;;;6243699;23;20015;-56
2022/01/22 00:18:36;;;;;;;37.13;11.98;;;7.10;68.10;;;;;;6233888;23;20016;-56
2022/01/22 00:21:02;;;;;;;22.63;10.95;;;7.00;68.20;;;;;;6231462;23;20464;-58
2022/01/22 00:23:29;;;;;;;30.50;11.27;;;7.00;68.40;;;;;;6235028;23;20015;-53
2022/01/22 00:25:56;;;;;;;31.27;10.95;;;7.00;68.50;;;;;;6234620;22;20009;-58
2022/01/22 00:28:22;;;;;;;29.17;11.15;;;7.00;68.60;;;;;;6235122;23;20001;-55
2022/01/22 00:30:50;;;;;;;35.10;10.98;;;7.00;68.60;;;;;;6232484;23;20574;-55
2022/01/22 00:33:16;;;;;;;27.63;10.50;;;7.00;68.70;;;;;;6231924;23;20000;-54
2022/01/22 00:35:44;;;;;;;28.45;11.00;;;7.00;68.70;;;;;;6234272;22;20011;-61
2022/01/22 00:38:11;;;;;;;32.17;11.10;;;7.00;68.70;;;;;;6234773;22;20008;-59
2022/01/22 00:40:37;;;;;;;26.35;10.70;;;7.00;68.80;;;;;;6231697;23;20721;-57
2022/01/22 00:43:03;;;;;;;25.73;11.25;;;7.00;68.90;;;;;;6233602;23;19996;-56
2022/01/22 00:45:30;;;;;;;27.38;11.73;;;7.00;68.90;;;;;;6234819;22;19997;-58
2022/01/22 00:47:56;;;;;;;27.70;10.60;;;7.00;69.00;;;;;;6230373;23;20008;-56
2022/01/22 00:50:24;;;;;;;31.58;11.43;;;7.00;69.10;;;;;;6234393;23;20023;-58
2022/01/22 00:52:51;;;;;;;23.77;10.98;;;6.90;69.10;;;;;;6231398;23;20008;-60
2022/01/22 00:55:18;;;;;;;36.60;12.27;;;7.00;69.30;;;;;;6232901;22;20015;-60
2022/01/22 00:57:45;;;;;;;24.17;11.00;;;6.90;69.10;;;;;;6234665;23;20008;-57
2022/01/22 01:00:14;;;;;;;23.58;11.07;;;6.90;69.20;;;;;;6232213;23;20008;-59
2022/01/22 01:02:40;;;;;;;33.17;12.20;;;6.90;69.30;;;;;;6230551;23;19997;-59
2022/01/22 01:05:08;;;;;;;31.52;11.20;;;6.90;69.40;;;;;;6234708;23;20008;-59
2022/01/22 01:07:35;;;;;;;29.63;12.98;;;6.90;69.60;;;;;;6234827;23;19997;-59
2022/01/22 01:10:01;;;;;;;30.27;12.30;;;6.90;69.50;;;;;;6234234;23;20027;-59
2022/01/22 01:12:28;;;;;;;30.85;11.70;;;6.90;69.60;;;;;;6233683;23;20004;-59
2022/01/22 01:34:09;;;;;;;31.63;12.23;;;6.90;70.10;;;;;;6242375;23;20007;-57
2022/01/22 01:36:36;;;;;;;29.35;13.18;;;6.80;70.10;;;;;;6244516;23;20004;-59
2022/01/22 01:39:06;;;;;;;30.80;13.45;;;6.90;70.20;;;;;;6234145;23;20004;-54
2022/01/22 01:41:46;;;;;;;26.80;12.43;;;6.80;70.20;;;;;;6229643;23;20004;-56
2022/01/22 01:44:13;;;;;;;26.80;12.73;;;6.80;70.30;;;;;;6234969;22;20033;-59
2022/01/22 01:46:48;;;;;;;28.10;13.10;;;6.80;70.30;;;;;;6232403;23;20003;-59
2022/01/22 01:49:16;;;;;;;29.25;13.73;;;6.80;70.50;;;;;;6233519;22;20004;-57
2022/01/22 01:51:43;;;;;;;26.60;13.68;;;6.80;70.50;;;;;;6232725;23;19996;-57
2022/01/22 01:59:42;;;;;;;27.70;14.32;;;6.90;70.40;;;;;;6243200;23;20014;-59
2022/01/22 02:02:09;;;;;;;33.90;14.93;;;6.90;70.30;;;;;;6230889;23;20008;-57
2022/01/22 02:04:36;;;;;;;31.92;14.43;;;6.80;70.30;;;;;;6233760;22;20337;-59
2022/01/22 02:07:03;;;;;;;30.38;14.93;;;6.90;70.30;;;;;;6234480;23;20008;-59
2022/01/22 02:09:29;;;;;;;36.60;14.75;;;6.80;71.00;;;;;;6234339;23;20007;-58
2022/01/22 02:12:08;;;;;;;29.08;14.82;;;6.80;70.50;;;;;;6230316;22;20425;-56
2022/01/22 02:25:32;;;;;;;32.80;15.60;;;6.90;71.10;;;;;;6245827;23;20023;-58
2022/01/22 02:28:00;;;;;;;26.80;14.95;;;6.90;70.20;;;;;;6235372;23;20441;-60
2022/01/22 02:30:30;;;;;;;41.75;15.00;;;6.90;70.00;;;;;;6234077;22;20004;-59
2022/01/22 02:35:33;;;;;;;;;;;7.00;70.10;;;;;;6245591;23;20027;-59
2022/01/22 02:38:09;;;;;;;28.75;16.70;;;7.00;70.20;;;;;;6232942;23;20316;-58
2022/01/22 02:40:42;;;;;;;39.42;17.95;;;7.00;69.90;;;;;;6245920;23;20416;-57
2022/01/22 02:43:12;;;;;;;38.30;18.15;;;7.00;70.00;;;;;;6234928;22;20315;-59
2022/01/22 02:45:44;;;;;;;47.28;18.05;;;7.00;69.90;;;;;;6235136;22;20011;-59
2022/01/22 02:48:10;;;;;;;35.55;17.27;;;7.00;70.00;;;;;;6233687;22;20022;-59
2022/01/22 02:50:37;;;;;;;48.30;19.00;;;7.00;69.90;;;;;;6209285;23;20300;-57
2022/01/22 02:53:10;;;;;;;28.23;17.08;;;7.00;70.00;;;;;;6236262;23;20035;-59
2022/01/22 02:55:36;;;;;;;35.22;19.10;;;7.00;70.00;;;;;;6245671;23;19992;-59
2022/01/22 02:58:03;;;;;;;42.80;17.85;;;7.00;70.00;;;;;;6235640;22;20004;-59
2022/01/22 03:00:31;;;;;;;31.50;18.58;;;7.00;70.10;;;;;;6233009;23;20337;-58
2022/01/22 03:02:57;;;;;;;46.55;19.00;;;6.90;70.10;;;;;;6233914;23;20026;-59
2022/01/22 03:05:24;;;;;;;42.55;20.02;;;7.00;70.20;;;;;;6235482;23;19996;-60
2022/01/22 03:07:54;;;;;;;42.30;21.05;;;7.00;70.20;;;;;;6236000;23;20008;-60
2022/01/22 03:10:24;;;;;;;37.55;19.83;;;7.00;70.20;;;;;;6233636;22;20408;-57
2022/01/22 03:18:17;;;;;;;39.75;20.30;;;7.00;70.40;;;;;;6242904;22;20026;-60
2022/01/22 03:29:03;;;;;;;35.60;22.23;;;6.90;70.50;;;;;;6244786;23;20017;-59
2022/01/22 03:31:29;;;;;;;36.88;21.98;;;6.90;70.50;;;;;;6232878;22;20000;-58
2022/01/22 03:33:55;;;;;;;37.35;21.65;;;7.00;70.70;;;;;;6234065;23;20000;-58
2022/01/22 03:36:22;;;;;;;35.58;22.33;;;7.00;70.70;;;;;;6235298;22;20007;-60
2022/01/22 03:38:49;;;;;;;45.30;23.67;;;6.90;70.60;;;;;;6233879;22;20035;-57
2022/01/22 03:41:16;;;;;;;38.45;21.10;;;7.00;70.70;;;;;;6235244;23;20270;-57
2022/01/22 03:43:43;;;;;;;35.08;21.77;;;7.00;70.90;;;;;;6234515;22;20008;-59
2022/01/22 03:46:09;;;;;;;37.78;22.42;;;7.00;70.80;;;;;;6235297;23;20616;-56
2022/01/22 03:48:35;;;;;;;41.15;22.75;;;7.00;70.90;;;;;;6233521;23;20027;-59
2022/01/22 03:51:02;;;;;;;41.30;23.58;;;7.00;70.80;;;;;;6234666;22;20008;-59
2022/01/22 03:53:28;;;;;;;42.17;23.27;;;7.00;70.80;;;;;;6233558;23;20293;-57
2022/01/22 03:58:20;;;;;;;39.25;22.88;;;7.00;70.80;;;;;;6235386;23;20008;-59
2022/01/22 04:00:49;;;;;;;40.33;22.83;;;7.00;70.70;;;;;;6231213;23;20011;-58
2022/01/22 04:03:38;;;;;;;40.13;22.35;;;7.00;70.80;;;;;;6232337;23;20007;-60
2022/01/22 04:06:29;;;;;;;37.28;21.88;;;7.00;70.80;;;;;;6245982;23;20417;-59
2022/01/22 04:08:52;;;;;;;41.35;21.80;;;7.00;70.90;;;;;;6234235;23;20012;-58
2022/01/22 04:11:18;;;;;;;36.55;22.13;;;7.00;70.90;;;;;;6231570;22;20026;-59
2022/01/22 04:13:47;;;;;;;42.55;22.60;;;7.00;70.90;;;;;;6231754;22;20011;-58
2022/01/22 04:16:15;;;;;;;46.50;22.55;;;7.00;71.00;;;;;;6232074;22;19996;-59
2022/01/22 04:26:58;;;;;;;40.55;23.02;;;7.00;71.20;;;;;;6244848;23;20456;-59
2022/01/22 04:29:27;;;;;;;34.90;23.13;;;6.90;71.20;;;;;;6233807;22;20004;-58
2022/01/22 04:31:54;;;;;;;36.30;23.05;;;6.90;71.30;;;;;;6229479;23;20429;-60
2022/01/22 04:34:20;;;;;;;36.58;22.65;;;6.90;71.40;;;;;;6233645;23;20007;-60
2022/01/22 04:36:46;;;;;;;40.05;24.40;;;6.90;71.50;;;;;;6233425;23;20015;-59
2022/01/22 04:39:13;;;;;;;41.42;24.77;;;6.90;71.50;;;;;;6235119;22;20201;-60
2022/01/22 04:41:39;;;;;;;37.40;23.88;;;6.90;71.60;;;;;;6232519;23;20012;-58
2022/01/22 04:44:07;;;;;;;45.30;24.75;;;6.90;71.60;;;;;;6234159;23;20364;-59
2022/01/22 04:49:13;;;;;;;40.25;25.25;;;7.00;71.70;;;;;;6232849;23;20019;-60
2022/01/22 04:57:09;;;;;;;43.28;25.80;;;7.00;71.70;;;;;;6243600;23;20460;-60
2022/01/22 04:59:35;;;;;;;35.92;25.35;;;7.00;71.70;;;;;;6233590;22;20425;-59
2022/01/22 05:02:02;;;;;;;40.60;25.52;;;7.00;71.70;;;;;;6231323;23;20003;-61
2022/01/22 05:04:28;;;;;;;46.25;25.38;;;7.00;71.80;;;;;;6234713;23;20015;-60
2022/01/22 05:06:55;;;;;;;48.72;26.48;;;7.00;71.80;;;;;;6233217;22;20015;-60
2022/01/22 05:09:21;;;;;;;38.72;25.52;;;7.00;71.80;;;;;;6231770;23;20012;-59
2022/01/22 05:11:47;;;;;;;39.80;25.75;;;7.00;71.90;;;;;;6232853;23;19992;-59
2022/01/22 05:14:13;;;;;;;43.45;26.30;;;7.00;71.90;;;;;;6232829;22;20333;-60
2022/01/22 05:16:39;;;;;;;39.83;26.63;;;7.00;72.00;;;;;;6227696;22;20461;-60
2022/01/22 05:19:14;;;;;;;44.42;26.42;;;7.00;72.00;;;;;;6241684;23;19992;-59
2022/01/22 05:21:42;;;;;;;42.83;27.70;;;7.00;72.10;;;;;;6242003;23;20440;-59
2022/01/22 05:24:13;;;;;;;40.50;26.20;;;7.00;72.10;;;;;;6235282;22;20004;-60
2022/01/22 05:37:06;;;;;;;43.22;26.70;;;7.00;72.20;;;;;;6240757;23;20013;-59
2022/01/22 05:39:35;;;;;;;44.35;27.48;;;7.00;72.20;;;;;;6232446;22;20337;-59
2022/01/22 05:42:04;;;;;;;47.05;28.13;;;7.00;72.20;;;;;;6233115;23;20000;-59
2022/01/22 05:44:31;;;;;;;46.80;28.67;;;7.00;72.20;;;;;;6232162;22;20433;-59
2022/01/22 05:47:03;;;;;;;50.00;28.90;;;7.00;72.20;;;;;;6230668;23;20488;-57
2022/01/22 05:49:31;;;;;;;53.75;29.95;;;7.00;72.20;;;;;;6234158;22;20016;-55
2022/01/22 05:52:00;;;;;;;44.38;28.83;;;7.10;72.20;;;;;;6232544;23;19996;-57
2022/01/22 05:59:43;;;;;;;58.95;29.77;;;7.10;72.20;;;;;;6242712;23;20015;-58
2022/01/22 06:02:15;;;;;;;49.85;30.10;;;7.10;72.10;;;;;;6229500;23;20064;-59
2022/01/22 06:04:43;;;;;;;47.20;29.80;;;7.10;72.20;;;;;;6242417;23;20003;-58
2022/01/22 06:07:10;;;;;;;56.00;29.42;;;7.10;72.10;;;;;;6231289;23;20021;-58
2022/01/22 06:09:41;;;;;;;58.72;30.60;;;7.10;72.70;;;;;;6230173;23;20445;-53
2022/01/22 06:14:35;;;;;;;52.85;30.27;;;7.10;72.10;;;;;;6232633;23;20039;-58
2022/01/22 06:17:02;;;;;;;47.92;30.08;;;7.10;72.10;;;;;;6230293;22;20012;-57
2022/01/22 06:19:28;;;;;;;49.05;30.33;;;7.10;72.00;;;;;;6232015;23;20015;-56
2022/01/22 06:21:55;;;;;;;55.42;30.27;;;7.10;72.10;;;;;;6230788;23;20523;-58
2022/01/22 06:24:22;;;;;;;54.38;30.83;;;7.10;72.10;;;;;;6233322;23;20000;-58
2022/01/22 06:26:50;;;;;;;54.88;31.42;;;7.10;72.10;;;;;;6232974;23;20032;-56
2022/01/22 06:29:16;;;;;;;55.00;31.52;;;7.10;72.10;;;;;;6234236;23;20012;-58
2022/01/22 06:31:43;;;;;;;53.15;32.42;;;7.10;72.20;;;;;;6230325;23;20302;-59
2022/01/22 06:34:09;;;;;;;50.75;32.33;;;7.10;72.10;;;;;;6231994;23;20004;-58
2022/01/22 06:36:35;;;;;;;55.45;32.15;;;7.10;72.10;;;;;;6233599;22;20008;-56
2022/01/22 06:39:14;;;;;;;52.90;32.08;;;7.10;72.20;;;;;;6231567;22;20348;-52
2022/01/22 06:41:45;;;;;;;59.63;31.92;;;7.10;72.20;;;;;;6242834;23;20377;-57
2022/01/22 06:44:18;;;;;;;60.80;31.90;;;7.10;72.30;;;;;;6232071;23;20004;-59
2022/01/22 06:46:49;;;;;;;56.25;31.95;;;7.10;72.30;;;;;;6229033;23;20333;-57
2022/01/22 06:49:16;;;;;;;53.92;31.45;;;7.10;72.30;;;;;;6229842;23;20004;-59
2022/01/22 06:51:42;;;;;;;50.95;30.65;;;7.20;72.30;;;;;;6230164;23;20007;-57
2022/01/22 06:54:11;;;;;;;53.90;32.72;;;7.20;72.30;;;;;;6229450;23;20503;-55
2022/01/22 06:56:38;;;;;;;58.85;35.22;;;7.20;72.30;;;;;;6232231;22;20000;-58
2022/01/22 06:59:13;;;;;;;57.90;34.40;;;7.20;72.20;;;;;;6231447;22;20004;-56
2022/01/22 07:01:39;;;;;;;59.03;33.50;;;7.20;72.10;;;;;;6237360;23;20000;-58
2022/01/22 07:04:06;;;;;;;57.00;35.47;;;7.20;72.10;;;;;;6229800;23;20016;-58
2022/01/22 07:06:33;;;;;;;58.65;34.13;;;7.20;72.10;;;;;;6232563;23;20007;-58
2022/01/22 07:08:59;;;;;;;61.25;35.22;;;7.30;72.20;;;;;;6232764;23;20008;-57
2022/01/22 07:11:25;;;;;;;59.40;35.83;;;7.20;72.10;;;;;;6234552;23;20004;-59
2022/01/22 07:13:52;;;;;;;55.85;34.80;;;7.30;72.20;;;;;;6235164;22;20004;-57
2022/01/22 07:16:18;;;;;;;58.50;35.42;;;7.30;72.20;;;;;;6234235;22;19996;-57
2022/01/22 07:18:44;;;;;;;58.13;33.90;;;7.30;72.30;;;;;;6234294;23;20016;-57
2022/01/22 07:21:20;;;;;;;70.10;35.28;;;7.30;72.20;;;;;;6234592;23;20420;-56
2022/01/22 07:26:14;;;;;;;103.15;35.58;;;7.30;72.20;;;;;;6233476;23;20266;-56
2022/01/22 07:28:41;;;;;;;71.50;34.53;;;7.30;72.10;;;;;;6234521;22;20017;-55
2022/01/22 07:31:08;;;;;;;63.78;35.05;;;7.30;72.00;;;;;;6233132;23;20312;-59
2022/01/22 07:33:34;;;;;;;66.15;34.15;;;7.30;72.00;;;;;;6234121;23;19996;-59
2022/01/22 07:36:04;;;;;;;73.80;35.20;;;7.30;72.10;;;;;;6234583;23;20004;-58
2022/01/22 07:38:30;;;;;;;55.50;34.45;;;7.30;72.10;;;;;;6234607;23;20011;-58
2022/01/22 07:40:56;;;;;;;75.07;34.90;;;7.30;72.10;;;;;;6234772;23;19999;-56
2022/01/22 07:43:23;;;;;;;165.40;36.70;;;7.30;72.10;;;;;;6235198;23;20000;-59
2022/01/22 07:45:49;;;;;;;101.60;36.50;;;7.30;72.10;;;;;;6234149;22;20005;-58
2022/01/22 07:48:16;;;;;;;66.88;34.22;;;7.30;72.20;;;;;;6233036;23;20325;-57
2022/01/22 07:50:42;;;;;;;88.80;36.15;;;7.20;72.20;;;;;;6220037;22;20012;-58
2022/01/22 07:53:08;;;;;;;61.58;34.95;;;7.30;72.30;;;;;;6232097;22;20032;-58
2022/01/22 07:55:34;;;;;;;62.55;34.10;;;7.20;72.30;;;;;;6230579;23;20019;-57
2022/01/22 07:58:00;;;;;;;75.40;34.50;;;7.20;72.40;;;;;;6233964;23;20004;-58
2022/01/22 08:00:27;;;;;;;71.63;35.10;;;7.20;72.50;;;;;;6231395;23;20414;-58
2022/01/22 08:02:53;;;;;;;67.88;34.97;;;7.30;72.60;;;;;;6232120;23;20000;-58
2022/01/22 08:05:19;;;;;;;55.45;33.58;;;7.20;72.60;;;;;;6230950;23;20329;-58
2022/01/22 08:07:45;;;;;;;97.13;33.45;;;7.30;72.70;;;;;;6233889;23;20322;-58
2022/01/22 08:10:13;;;;;;;66.63;35.40;;;7.30;72.70;;;;;;6230376;22;20329;-57
2022/01/22 08:12:42;;;;;;;81.30;34.75;;;7.30;72.70;;;;;;6233194;23;20380;-56
2022/01/22 08:15:11;;;;;;;67.88;35.75;;;7.30;72.70;;;;;;6233829;22;20008;-58
2022/01/22 08:17:38;;;;;;;55.88;34.67;;;7.30;72.70;;;;;;6230561;22;20012;-58
2022/01/22 08:20:05;;;;;;;67.68;35.13;;;7.30;72.80;;;;;;6232573;23;20004;-56
2022/01/22 08:22:31;;;;;;;71.03;35.45;;;7.30;72.80;;;;;;6232258;22;20333;-58
2022/01/22 08:25:00;;;;;;;60.22;33.30;;;7.30;72.80;;;;;;6233326;23;20000;-57
2022/01/22 08:29:53;;;;;;;67.30;35.08;;;7.40;72.80;;;;;;6232246;23;20032;-56
2022/01/22 08:37:33;;;;;;;56.47;34.97;;;7.40;72.70;;;;;;6243431;23;20011;-58
2022/01/22 08:40:00;;;;;;;68.97;35.53;;;7.40;72.80;;;;;;6233115;23;20053;-59
2022/01/22 08:42:27;;;;;;;71.45;34.35;;;7.40;72.80;;;;;;6233600;22;20027;-58
2022/01/22 08:44:54;;;;;;;60.50;34.70;;;7.40;72.70;;;;;;6232065;23;20004;-56
2022/01/22 08:47:21;;;;;;;58.67;33.67;;;7.50;72.80;;;;;;6231154;23;20019;-59
2022/01/22 08:49:47;;;;;;;58.60;34.17;;;7.50;72.80;;;;;;6243950;23;20012;-57
2022/01/22 08:52:15;;;;;;;61.60;34.78;;;7.50;72.90;;;;;;6230934;23;20015;-58
2022/01/22 08:54:44;;;;;;;59.55;33.08;;;7.50;72.80;;;;;;6230228;22;20028;-57
2022/01/22 08:57:10;;;;;;;52.15;32.17;;;7.50;72.80;;;;;;6231518;23;20178;-56
2022/01/22 08:59:37;;;;;;;53.97;31.77;;;7.50;72.70;;;;;;6232729;23;20000;-55
2022/01/22 09:02:05;;;;;;;54.47;31.65;;;7.50;72.70;;;;;;6231302;22;20011;-56
2022/01/22 09:04:32;;;;;;;50.72;33.08;;;7.60;72.70;;;;;;6232979;23;20008;-55
2022/01/22 09:06:59;;;;;;;52.38;31.08;;;7.60;72.60;;;;;;6232623;23;20258;-56
2022/01/22 09:09:26;;;;;;;51.22;33.22;;;7.60;72.60;;;;;;6230110;23;20004;-55
2022/01/22 09:11:54;;;;;;;55.15;33.30;;;7.60;72.70;;;;;;6232687;22;20008;-53
2022/01/22 09:14:20;;;;;;;53.58;31.90;;;7.60;72.60;;;;;;6232590;23;20004;-56
2022/01/22 09:16:48;;;;;;;53.22;32.78;;;7.60;72.60;;;;;;6229823;22;20019;-55
2022/01/22 09:19:15;;;;;;;60.47;33.25;;;7.60;72.60;;;;;;6243558;23;20000;-53
2022/01/22 09:21:48;;;;;;;64.45;34.90;;;7.70;72.70;;;;;;6230405;23;20374;-56
2022/01/22 09:24:16;;;;;;;63.85;34.97;;;7.70;72.60;;;;;;6232310;23;20284;-55
2022/01/22 09:26:42;;;;;;;60.00;34.42;;;7.70;72.60;;;;;;6231948;23;20260;-53
2022/01/22 09:29:08;;;;;;;63.42;34.65;;;7.70;72.60;;;;;;6231022;23;20034;-56
2022/01/22 09:31:35;;;;;;;58.50;34.83;;;7.70;72.60;;;;;;6231738;23;20008;-55
2022/01/22 09:34:02;;;;;;;64.45;34.65;;;7.70;72.40;;;;;;6232688;23;20329;-55
2022/01/22 09:36:30;;;;;;;67.43;33.75;;;7.80;72.40;;;;;;6232323;23;20532;-55
2022/01/22 09:38:57;;;;;;;71.43;33.65;;;7.80;72.40;;;;;;6233446;23;20000;-55
2022/01/22 09:41:25;;;;;;;62.17;33.70;;;7.80;72.50;;;;;;6232057;23;20010;-53
2022/01/22 09:43:53;;;;;;;62.95;33.08;;;7.80;72.50;;;;;;6233535;23;20004;-55
2022/01/22 09:46:21;;;;;;;58.97;33.65;;;7.80;72.60;;;;;;6231956;23;20489;-55
2022/01/22 09:48:49;;;;;;;55.83;33.13;;;7.80;72.40;;;;;;6232918;23;20015;-55
2022/01/22 09:51:15;;;;;;;60.78;33.78;;;7.80;72.50;;;;;;6233462;23;20003;-56
2022/01/22 09:53:45;;;;;;;57.53;31.38;;;7.90;72.60;;;;;;6233595;23;20004;-55
2022/01/22 09:56:16;;;;;;;61.80;33.50;;;7.90;72.70;;;;;;6230168;23;20445;-55
2022/01/22 09:58:42;;;;;;;58.33;33.13;;;7.90;72.70;;;;;;6241127;23;20281;-55
2022/01/22 10:01:25;;;;;;;55.42;32.65;;;7.90;72.70;;;;;;6227674;23;20007;-58
2022/01/22 10:03:55;;;;;;;64.28;32.85;;;8.00;72.80;;;;;;6238737;23;20000;-58
2022/01/22 10:06:25;;;;;;;58.25;33.05;;;8.00;72.70;;;;;;6228419;22;20004;-56
2022/01/22 10:08:56;;;;;;;66.85;33.90;;;8.00;72.60;;;;;;6232335;23;20312;-55
2022/01/22 10:11:25;;;;;;;60.60;34.00;;;8.00;72.70;;;;;;6239284;23;20015;-54
2022/01/22 10:13:53;;;;;;;57.13;31.83;;;8.10;72.80;;;;;;6231784;22;20318;-55
2022/01/22 10:16:33;;;;;;;55.75;32.13;;;8.10;73.10;;;;;;6230450;22;19996;-56
2022/01/22 10:19:11;;;;;;;55.53;31.90;;;8.20;73.20;;;;;;6241561;23;20012;-57
2022/01/22 10:21:40;;;;;;;56.10;30.80;;;8.20;73.20;;;;;;6227395;23;19996;-53
2022/01/22 10:24:22;;;;;;;51.25;29.77;;;8.30;73.30;;;;;;6231852;23;20422;-53
2022/01/22 10:27:44;;;;;;;67.05;31.27;;;8.40;73.00;;;;;;6232779;23;20008;-55
2022/01/22 10:30:15;;;;;;;51.92;30.42;;;8.40;72.80;;;;;;6226922;23;20016;-51
2022/01/22 10:32:51;;;;;;;;;;;;;;;;;;;;;
2022/01/22 10:35:16;;;;;;;51.28;30.05;;;8.50;72.10;;;;;;6231986;23;20000;-56
2022/01/22 10:37:43;;;;;;;58.22;30.55;;;8.60;72.00;;;;;;6232744;23;20000;-55
2022/01/22 10:40:31;;;;;;;49.70;28.85;;;8.60;71.90;;;;;;6228903;23;20027;-55
2022/01/22 10:43:21;;;;;;;50.08;29.55;;;8.60;71.90;;;;;;6231061;23;20629;-55
2022/01/22 10:46:09;;;;;;;49.92;28.48;;;8.60;71.90;;;;;;6233369;22;20015;-56
2022/01/22 10:48:38;;;;;;;45.15;27.95;;;8.60;71.80;;;;;;6243557;23;20019;-55
2022/01/22 10:51:13;;;;;;;45.40;27.67;;;8.70;71.70;;;;;;6229437;22;20306;-57
2022/01/22 10:53:49;;;;;;;46.65;27.98;;;8.60;71.50;;;;;;6243112;23;20004;-56
2022/01/22 10:56:22;;;;;;;43.67;27.58;;;8.70;71.40;;;;;;6241164;23;19996;-54
2022/01/22 10:58:55;;;;;;;46.38;27.05;;;8.70;71.40;;;;;;6231778;23;20334;-55
2022/01/22 11:01:22;;;;;;;44.50;26.33;;;8.70;71.30;;;;;;6240880;23;20213;-56
2022/01/22 11:04:05;;;;;;;47.42;28.23;;;8.70;71.30;;;;;;6231823;23;20322;-55
2022/01/22 11:06:31;;;;;;;47.95;25.90;;;8.70;71.40;;;;;;6242237;23;19997;-55
2022/01/22 11:08:58;;;;;;;42.70;25.23;;;8.70;71.30;;;;;;6232722;23;20008;-56
2022/01/22 11:11:24;;;;;;;46.75;25.25;;;8.60;71.30;;;;;;6232869;22;20289;-52
2022/01/22 11:13:51;;;;;;;42.35;25.00;;;8.60;71.40;;;;;;6234688;23;20295;-55
2022/01/22 11:16:18;;;;;;;39.03;23.90;;;8.60;71.40;;;;;;6230042;22;20201;-55
2022/01/22 11:18:49;;;;;;;42.88;24.80;;;8.60;71.50;;;;;;6234614;22;20016;-54
2022/01/22 11:21:16;;;;;;;39.42;24.27;;;8.60;71.50;;;;;;6227781;23;20329;-57
2022/01/22 11:23:43;;;;;;;40.60;23.02;;;8.60;71.50;;;;;;6231284;22;20008;-55
2022/01/22 11:26:10;;;;;;;41.38;25.15;;;8.60;71.50;;;;;;6231920;23;20031;-55
2022/01/22 11:28:39;;;;;;;40.22;23.77;;;8.60;71.60;;;;;;6233074;23;20000;-53
2022/01/22 11:31:07;;;;;;;35.80;22.13;;;8.60;71.70;;;;;;6229824;22;20011;-58
2022/01/22 11:33:35;;;;;;;36.40;20.42;;;8.60;71.80;;;;;;6231162;23;20000;-55
2022/01/22 11:36:08;;;;;;;37.90;20.80;;;8.60;71.90;;;;;;6232337;23;20298;-56
2022/01/22 11:38:35;;;;;;;33.05;20.45;;;8.60;72.00;;;;;;6232230;23;20336;-54
2022/01/22 11:41:20;;;;;;;38.40;22.00;;;8.60;72.00;;;;;;6233609;23;20004;-56
2022/01/22 11:44:11;;;;;;;;;;;8.60;72.10;;;;;;6245840;23;19996;-55
2022/01/22 11:46:42;;;;;;;37.00;21.92;;;8.70;72.10;;;;;;6234982;22;20217;-58
2022/01/22 11:49:26;;;;;;;44.53;23.50;;;8.70;72.40;;;;;;6234705;23;20455;-55
2022/01/22 11:52:12;;;;;;;41.72;23.08;;;8.70;71.70;;;;;;6244101;23;19997;-58
2022/01/22 11:54:55;;;;;;;39.85;24.30;;;8.70;71.70;;;;;;6234448;22;20401;-57
2022/01/22 11:57:22;;;;;;;41.88;24.02;;;8.70;71.90;;;;;;6235390;23;20282;-55
2022/01/22 12:00:09;;;;;;;39.28;23.40;;;8.70;72.60;;;;;;6234333;23;20020;-56
2022/01/22 12:02:35;;;;;;;41.33;24.73;;;8.60;72.10;;;;;;6234082;23;20000;-58
2022/01/22 12:05:03;;;;;;;43.35;24.45;;;8.60;72.10;;;;;;6232505;23;20688;-58
2022/01/22 12:07:35;;;;;;;39.35;24.50;;;8.70;72.20;;;;;;6234627;22;20004;-57
2022/01/22 12:10:33;;;;;;;49.38;25.73;;;8.60;72.10;;;;;;6232356;22;20016;-54
2022/01/22 12:16:08;;;;;;;41.85;25.45;;;8.60;72.50;;;;;;6230369;23;20075;-57
2022/01/22 12:18:40;;;;;;;41.75;25.48;;;8.60;72.20;;;;;;6230667;22;20190;-56
2022/01/22 12:23:32;;;;;;;40.42;26.52;;;8.60;72.20;;;;;;6243512;23;20329;-58
2022/01/22 12:26:00;;;;;;;44.08;27.23;;;8.60;72.90;;;;;;6235276;23;20535;-56
2022/01/22 12:28:38;;;;;;;46.80;27.30;;;8.60;72.30;;;;;;6230471;23;20302;-58
2022/01/22 12:31:19;;;;;;;42.08;26.48;;;8.60;72.40;;;;;;6245049;23;20011;-55
2022/01/22 12:33:52;;;;;;;47.70;28.05;;;8.60;72.40;;;;;;6243421;23;19999;-59
2022/01/22 12:36:35;;;;;;;46.80;28.87;;;8.60;72.40;;;;;;6234531;23;19996;-59
2022/01/22 12:39:08;;;;;;;57.78;30.40;;;8.60;72.30;;;;;;6244301;23;19996;-58
2022/01/22 12:44:25;;;;;;;48.30;28.95;;;8.50;72.30;;;;;;6244706;23;20019;-58
2022/01/22 12:47:00;;;;;;;44.72;27.60;;;8.60;72.60;;;;;;6242897;23;20006;-56
2022/01/22 12:49:28;;;;;;;44.83;27.92;;;8.60;72.60;;;;;;6244931;23;20011;-58
2022/01/22 12:51:57;;;;;;;48.42;28.95;;;8.60;72.70;;;;;;6232938;23;20007;-58
2022/01/22 12:54:32;;;;;;;46.83;28.73;;;8.60;72.80;;;;;;6233820;23;20004;-57
2022/01/22 12:57:10;;;;;;;47.40;26.85;;;8.60;72.70;;;;;;6234487;22;20008;-55
2022/01/22 12:59:52;;;;;;;44.72;26.77;;;8.70;72.70;;;;;;6233600;23;20365;-56
2022/01/22 13:02:19;;;;;;;50.60;27.08;;;8.70;72.60;;;;;;6231886;23;19997;-54
2022/01/22 13:04:59;;;;;;;42.80;24.52;;;8.80;72.60;;;;;;6233716;23;20696;-58
2022/01/22 13:07:26;;;;;;;38.80;24.90;;;8.80;72.30;;;;;;6234831;23;20000;-56
2022/01/22 13:09:57;;;;;;;41.25;25.25;;;8.70;72.00;;;;;;6233517;23;20012;-58
2022/01/22 13:12:25;;;;;;;42.78;24.92;;;8.70;72.20;;;;;;6233756;22;20015;-56
2022/01/22 13:14:55;;;;;;;38.08;22.52;;;8.80;72.40;;;;;;6233330;22;20023;-58
2022/01/22 13:17:29;;;;;;;37.97;22.73;;;8.80;72.40;;;;;;6230826;22;20016;-57
2022/01/22 13:19:56;;;;;;;37.60;23.02;;;8.80;72.30;;;;;;6242927;23;20233;-56
2022/01/22 13:22:40;;;;;;;44.25;23.92;;;8.80;72.20;;;;;;6234677;23;20015;-55
2022/01/22 13:25:12;;;;;;;39.38;23.02;;;8.80;72.30;;;;;;6243560;23;20008;-58
2022/01/22 13:27:40;;;;;;;38.25;21.98;;;8.80;72.10;;;;;;6234253;22;20615;-58
2022/01/22 13:30:09;;;;;;;35.97;22.40;;;8.80;72.00;;;;;;6234140;23;20478;-58
2022/01/22 13:32:56;;;;;;;31.25;19.00;;;8.80;72.00;;;;;;6233093;23;20003;-55
2022/01/22 13:35:52;;;;;;;32.45;18.73;;;8.80;71.90;;;;;;6243344;23;20070;-57
2022/01/22 13:49:33;;;;;;;36.30;22.20;;;8.70;72.00;;;;;;6244017;23;20707;-57
2022/01/22 13:52:03;;;;;;;34.13;20.17;;;8.70;72.10;;;;;;6233076;23;20007;-58
2022/01/22 13:54:40;;;;;;;38.78;21.00;;;8.70;72.20;;;;;;6232497;23;20008;-55
2022/01/22 13:57:09;;;;;;;31.50;17.60;;;8.60;72.00;;;;;;6244541;23;20018;-58
2022/01/22 13:59:46;;;;;;;30.45;17.52;;;8.60;72.00;;;;;;6234582;23;19996;-54
2022/01/22 14:04:52;;;;;;;30.50;18.10;;;8.60;72.10;;;;;;6243024;23;20008;-54
2022/01/22 14:07:38;;;;;;;27.50;15.57;;;8.60;72.10;;;;;;6233118;23;20318;-53
2022/01/22 14:10:13;;;;;;;33.15;16.52;;;8.60;73.00;;;;;;6241858;23;20000;-56
2022/01/22 14:12:42;;;;;;;31.10;16.55;;;8.50;72.30;;;;;;6227685;23;20015;-56
2022/01/22 14:15:16;;;;;;;35.90;16.88;;;8.50;72.40;;;;;;6230598;23;20440;-56
2022/01/22 14:18:08;;;;;;;36.50;17.85;;;8.50;72.60;;;;;;6234709;22;20016;-58
2022/01/22 14:20:56;;;;;;;35.53;18.10;;;8.50;72.60;;;;;;6242915;23;20437;-58
2022/01/22 14:23:24;;;;;;;38.45;18.80;;;8.50;72.50;;;;;;6233643;23;20001;-58
2022/01/22 14:26:03;;;;;;;43.20;19.05;;;8.50;72.50;;;;;;6231784;23;20023;-58
2022/01/22 14:28:51;;;;;;;38.28;20.55;;;8.50;72.60;;;;;;6227943;23;20015;-57
2022/01/22 14:31:26;;;;;;;35.08;19.58;;;8.50;72.70;;;;;;6241255;23;20007;-57
2022/01/22 14:33:55;;;;;;;35.55;20.35;;;8.50;72.60;;;;;;6241502;23;20000;-57
2022/01/22 14:36:24;;;;;;;38.08;20.60;;;8.50;72.80;;;;;;6229557;23;20000;-56
2022/01/22 14:38:56;;;;;;;33.92;20.38;;;8.50;72.80;;;;;;6233049;23;20001;-56
2022/01/22 14:46:56;;;;;;;40.63;22.85;;;8.50;73.50;;;;;;6239461;23;20005;-57
2022/01/22 14:49:25;;;;;;;41.40;22.92;;;8.50;72.80;;;;;;6241038;23;20356;-56
2022/01/22 14:51:52;;;;;;;45.90;23.88;;;8.50;72.80;;;;;;6232727;23;20003;-58
2022/01/22 14:54:23;;;;;;;44.58;23.67;;;8.50;72.80;;;;;;6230699;23;20052;-56
2022/01/22 14:56:49;;;;;;;44.97;22.70;;;8.50;72.70;;;;;;6229725;22;20000;-55
2022/01/22 14:59:15;;;;;;;41.83;23.13;;;8.50;72.70;;;;;;6232098;22;20008;-58
2022/01/22 15:01:42;;;;;;;45.28;24.17;;;8.50;72.70;;;;;;6228882;23;20007;-55